Terminal Aerodrome Forecast
Issued by NWS Riverton, WY

Current Version | Previous Version | Text Only | Print | Product List | Glossary On
Versions: 1 2 3 4 5 6 7 8 9 10 11 12 13
648
FTUS45 KRIW 241125
TAFRIW
TAF
KRIW 241125Z 2412/2512 31011KT P6SM FEW100 SCT200
     FM241300 VRB05KT P6SM SCT100 BKN200
     FM241900 19011KT P6SM SCT070 BKN150
     FM242300 26012G19KT P6SM VCSH SCT050 BKN070
     FM250300 31017G25KT P6SM SCT070 BKN100=

USA.gov is the U.S. government's official web portal to all federal, state and local government web resources and services.